DAOV

Ghriss Airport

Algeria
TAF DAOV 202300Z 2100/2109 VRB02KT CAVOK
Issued Valid From Valid To
Apr-20 @ 23:00 UTC
(5 hours ago)
Apr-21 @ 00:00 UTC
(4 hours ago)
Apr-21 @ 09:00 UTC
(in 5 hours)
Apr-21 @ 00:00 to Apr-21 @ 09:00
TAF DAOV 202300Z 2100/2109 VRB02KT CAVOK
Wind Visibility Clouds Conditions
Variable at 2 knots 10,000+ meters
  • No significant clouds
TAF DAOV 202300Z 2100/2109 VRB02KT CAVOK
Issued Apr-20 @ 23:00 UTC
(5 hours ago)
Valid From Apr-21 @ 00:00 UTC
(4 hours ago)
Valid To Apr-21 @ 09:00 UTC
(in 5 hours)
Apr-21 @ 00:00 - Apr-21 @ 09:00
Wind Visibility
Variable at 2 knots 10,000+ meters
Clouds
  • No significant clouds
Conditions